ADDS METAR Data INFO
IDs: Format: Raw Decoded Include TAF

Data at: 0734 UTC 18 Oct 2017

KSHD 180715Z AUTO 00000KT 10SM CLR 00/00 A3035 RMK AO2 T00031002
KSHD 180655Z AUTO 00000KT 10SM CLR 01/00 A3035 RMK AO2 T00070000
KSHD 180635Z AUTO 00000KT 10SM CLR 01/00 A3035 RMK AO2 T00071004
KSHD 180615Z AUTO 00000KT 10SM CLR 01/00 A3035 RMK AO2 T00130001
KSHD 180555Z AUTO 00000KT 10SM CLR 01/00 A3035 RMK AO2 T00090000 10097 20009 401611005
KSHD 180535Z AUTO 00000KT 10SM CLR 02/00 A3035 RMK AO2 T00150003
KSHD 180515Z AUTO 00000KT 10SM CLR 02/00 A3035 RMK AO2 T00150000
KSHD 180455Z AUTO 00000KT 10SM CLR 03/01 A3035 RMK AO2 T00300010
KSHD 180435Z AUTO 00000KT 10SM CLR 03/01 A3035 RMK AO2 T00270007
KSHD 180415Z AUTO 00000KT 10SM CLR 03/01 A3035 RMK AO2 T00340012
KSHD 180355Z AUTO 00000KT 10SM CLR 04/01 A3035 RMK AO2 T00400011
KSHD 180335Z AUTO 00000KT 10SM CLR 03/01 A3035 RMK AO2 T00320012
KSHD 180315Z AUTO 00000KT 10SM CLR 04/01 A3035 RMK AO2 T00420014
KSHD 180255Z AUTO 00000KT 10SM CLR 04/01 A3035 RMK AO2 T00380011
KSHD 180235Z AUTO 00000KT 10SM CLR 06/02 A3035 RMK AO2 T00580020
KSHD 180215Z AUTO 00000KT 10SM CLR 05/02 A3035 RMK AO2 T00530018
KSHD 180155Z AUTO 00000KT 10SM CLR 06/02 A3034 RMK AO2 T00630019
KSHD 180135Z AUTO 00000KT 10SM CLR 06/02 A3034 RMK AO2 T00600019
KSHD 180115Z AUTO 24003KT 10SM CLR 05/02 A3033 RMK AO2 T00470018
KSHD 180055Z AUTO 00000KT 10SM CLR 07/02 A3033 RMK AO2 T00720021
KSHD 180035Z AUTO 00000KT 10SM CLR 07/02 A3033 RMK AO2 T00730019
KSHD 180015Z AUTO 00000KT 10SM CLR 08/02 A3032 RMK AO2 T00810020
KSHD 172355Z AUTO 00000KT 10SM CLR 10/02 A3031 RMK AO2 T00990020 10161 20085
KSHD 172335Z AUTO 00000KT 10SM CLR 09/02 A3031 RMK AO2 T00860021
KSHD 172315Z AUTO 00000KT 10SM CLR 12/01 A3030 RMK AO2 T01200011
KSHD 172255Z AUTO 00000KT 10SM CLR 13/01 A3030 RMK AO2 T01250011
KSHD 172235Z AUTO 00000KT 10SM CLR 14/01 A3030 RMK AO2 T01360010
KSHD 172215Z AUTO 00000KT 10SM CLR 15/00 A3029 RMK AO2 T01510003
KSHD 172155Z AUTO 00000KT 10SM CLR 16/00 A3029 RMK AO2 T01550002
KSHD 172135Z AUTO 00000KT 10SM CLR 16/00 A3030 RMK AO2 T01560000
KSHD 172115Z AUTO 21004KT 10SM CLR 16/00 A3030 RMK AO2 T01580004
KSHD 172055Z AUTO 00000KT 10SM CLR 16/00 A3030 RMK AO2 T01610002
KSHD 172035Z AUTO 00000KT 10SM CLR 16/00 A3031 RMK AO2 T01560002
KSHD 172015Z AUTO 00000KT 10SM CLR 16/00 A3031 RMK AO2 T01570000
KSHD 171955Z AUTO 00000KT 10SM CLR 16/00 A3031 RMK AO2 T01551001
KSHD 171935Z AUTO 00000KT 10SM CLR 16/00 A3032 RMK AO2 T01550000
KSHD 171915Z AUTO 00000KT 10SM CLR 15/M01 A3032 RMK AO2 T01521006
KSHD 171855Z AUTO 35004KT 10SM CLR 15/M01 A3033 RMK AO2 T01511006
KSHD 171835Z AUTO 08003KT 10SM CLR 15/M01 A3033 RMK AO2 T01481012
KSHD 171815Z AUTO 02003KT 10SM CLR 15/M03 A3035 RMK AO2 T01481027
KSHD 171755Z AUTO 35004KT 10SM CLR 14/M02 A3035 RMK AO2 T01441021 10146 21004
KSHD 171735Z AUTO 07005KT 10SM CLR 14/M02 A3035 RMK AO2 T01381024
KSHD 171715Z AUTO 07003KT 10SM CLR 14/M01 A3036 RMK AO2 T01371012
KSHD 171655Z AUTO 36003KT 10SM CLR 14/M01 A3038 RMK AO2 T01371007
KSHD 171635Z AUTO 01006KT 10SM CLR 13/00 A3039 RMK AO2 T01311004
KSHD 171615Z AUTO 01004KT 10SM CLR 12/00 A3040 RMK AO2 T01240004
KSHD 171555Z AUTO 03005KT 10SM CLR 12/02 A3040 RMK AO2 T01210016
KSHD 171535Z AUTO 34004KT 10SM CLR 11/02 A3041 RMK AO2 T01090019
KSHD 171515Z AUTO 03005KT 10SM CLR 11/02 A3041 RMK AO2 T01080018
KSHD 171455Z AUTO 06003KT 10SM CLR 10/02 A3041 RMK AO2 T00990021
KSHD 171435Z AUTO 00000KT 10SM CLR 09/03 A3041 RMK AO2 T00860030
KSHD 171415Z AUTO 00000KT 10SM CLR 07/03 A3042 RMK AO2 T00720032
KSHD 171355Z AUTO 00000KT 10SM CLR 06/03 A3042 RMK AO2 T00630030
KSHD 171335Z AUTO 00000KT 10SM CLR 05/03 A3042 RMK AO2 T00540026
KSHD 171315Z AUTO 00000KT 10SM CLR 04/03 A3041 RMK AO2 T00410026
KSHD 171255Z AUTO 00000KT 10SM CLR 03/02 A3041 RMK AO2 T00270020
KSHD 171235Z AUTO 00000KT 10SM CLR 02/01 A3040 RMK AO2 T00150010
KSHD 171215Z AUTO 00000KT 7SM CLR 01/00 A3039 RMK AO2 T00050001
KSHD 171155Z AUTO 00000KT 7SM CLR 00/M01 A3038 RMK AO2 T10041008 10032 21005
KSHD 171135Z AUTO 00000KT 10SM CLR 00/00 A3037 RMK AO2 T00010000
KSHD 171115Z AUTO 00000KT 10SM CLR 00/00 A3037 RMK AO2 T00010000
KSHD 171055Z AUTO 00000KT 10SM CLR 00/00 A3037 RMK AO2 T00030000
KSHD 171035Z AUTO 00000KT 10SM CLR 00/M01 A3036 RMK AO2 T10041008
KSHD 171015Z AUTO 00000KT 10SM CLR 00/00 A3035 RMK AO2 T00021002
KSHD 170955Z AUTO 00000KT 10SM CLR 00/00 A3035 RMK AO2 T00030001
KSHD 170935Z AUTO 00000KT 10SM CLR 01/00 A3035 RMK AO2 T00090003
KSHD 170915Z AUTO 00000KT 10SM CLR 01/01 A3034 RMK AO2 T00130009
KSHD 170855Z AUTO 00000KT 10SM CLR 01/01 A3033 RMK AO2 T00120007
KSHD 170835Z AUTO 00000KT 10SM CLR 01/00 A3032 RMK AO2 T00060001
KSHD 170815Z AUTO 00000KT 10SM CLR 01/01 A3031 RMK AO2 T00120005
KSHD 170755Z AUTO 00000KT 10SM CLR 02/01 A3030 RMK AO2 T00170011
KSHD 170735Z AUTO 00000KT 10SM CLR 01/00 A3030 RMK AO2 T00070000
KSHD 170715Z AUTO 00000KT 10SM CLR 02/02 A3030 RMK AO2 T00240016
KSHD 170655Z AUTO 00000KT 10SM CLR 01/01 A3030 RMK AO2 T00140007
KSHD 170635Z AUTO 00000KT 10SM CLR 03/02 A3031 RMK AO2 T00250015
KSHD 170615Z AUTO 00000KT 10SM CLR 03/01 A3030 RMK AO2 T00260013
KSHD 170555Z AUTO 00000KT 10SM CLR 03/02 A3030 RMK AO2 T00290015 10110 20022 401830022
KSHD 170535Z AUTO 00000KT 10SM CLR 03/01 A3030 RMK AO2 T00250010
KSHD 170515Z AUTO 00000KT 10SM CLR 04/02 A3030 RMK AO2 T00370021
KSHD 170455Z AUTO 00000KT 10SM CLR 03/02 A3030 RMK AO2 T00320018
KSHD 170435Z AUTO 00000KT 10SM CLR 04/02 A3030 RMK AO2 T00440023
KSHD 170415Z AUTO 00000KT 10SM CLR 05/02 A3030 RMK AO2 T00450023
KSHD 170355Z AUTO 00000KT 10SM CLR 04/02 A3030 RMK AO2 T00440023
KSHD 170335Z AUTO 00000KT 10SM CLR 05/02 A3030 RMK AO2 T00530024
KSHD 170315Z AUTO 00000KT 10SM CLR 07/03 A3030 RMK AO2 T00650026
KSHD 170255Z AUTO 00000KT 10SM CLR 07/03 A3029 RMK AO2 T00650026
KSHD 170240Z AUTO 00000KT 10SM CLR 07/03 A3029 RMK AO2 T00650026
KSHD 170215Z AUTO 30003KT 10SM CLR 08/03 A3028 RMK AO2 T00750026
KSHD 170155Z AUTO 33004KT 10SM CLR 09/03 A3028 RMK AO2 T00870026
KSHD 170135Z AUTO 33004KT 10SM CLR 10/03 A3027 RMK AO2 T00950026
KSHD 170115Z AUTO 33006KT 10SM CLR 10/03 A3026 RMK AO2 T01020025
KSHD 170055Z AUTO 33009KT 10SM CLR 11/03 A3025 RMK AO2 T01050025
KSHD 170035Z AUTO 34005KT 10SM CLR 11/03 A3025 RMK AO2 T01060025
KSHD 170015Z AUTO 34006KT 10SM CLR 11/03 A3025 RMK AO2 T01070027
KSHD 162355Z AUTO 35006KT 10SM CLR 11/03 A3024 RMK AO2 T01110034 10166 20111
KSHD 162335Z AUTO 34008KT 10SM SCT065 12/04 A3024 RMK AO2 T01150035
KSHD 162315Z AUTO 34007KT 10SM SCT065 11/04 A3023 RMK AO2 T01140035
KSHD 162255Z AUTO 32006KT 10SM CLR 12/03 A3021 RMK AO2 T01190031
KSHD 162235Z AUTO 31007KT 10SM CLR 13/03 A3020 RMK AO2 T01260030
KSHD 162215Z AUTO 34007KT 10SM SCT055 14/02 A3019 RMK AO2 T01400021
KSHD 162155Z AUTO 35014G18KT 10SM BKN055 14/02 A3019 RMK AO2 T01440017
KSHD 162135Z AUTO 36009KT 10SM SCT055 14/03 A3018 RMK AO2 T01440029
KSHD 162115Z AUTO 35007KT 10SM SCT060 14/03 A3018 RMK AO2 T01360030
KSHD 162055Z AUTO 35012G16KT 10SM BKN060 14/04 A3018 RMK AO2 T01440036
KSHD 162035Z AUTO 36011G16KT 10SM BKN050 BKN070 15/04 A3018 RMK AO2 T01470038
KSHD 162015Z AUTO 34011G16KT 7SM SCT060 16/04 A3017 RMK AO2 T01600038
KSHD 161955Z AUTO 32012G16KT 10SM CLR 16/04 A3017 RMK AO2 T01590035
KSHD 161935Z AUTO 32011G21KT 10SM SCT050 16/03 A3016 RMK AO2 T01570033